createdAt,value
2018-08-12T00:01:01.455Z,1016.22
2018-08-12T00:02:10.920Z,1016.2
2018-08-12T00:03:20.096Z,1016.23
2018-08-12T00:04:28.991Z,1016.2
2018-08-12T00:05:38.180Z,1016.22
2018-08-12T00:06:47.341Z,1016.22
2018-08-12T00:07:56.257Z,1016.21
2018-08-12T00:09:05.704Z,1016.18
2018-08-12T00:10:14.874Z,1016.2
2018-08-12T00:11:24.015Z,1016.2
2018-08-12T00:12:33.439Z,1016.17
2018-08-12T00:13:42.840Z,1016.14
2018-08-12T00:14:52.242Z,1016.15
2018-08-12T00:16:01.131Z,1016.15
2018-08-12T00:17:10.593Z,1016.15
2018-08-12T00:18:19.477Z,1016.17
2018-08-12T00:19:29.134Z,1016.15
2018-08-12T00:20:38.038Z,1016.13
2018-08-12T00:21:47.438Z,1016.15
2018-08-12T00:22:56.333Z,1016.1
2018-08-12T00:24:05.511Z,1016.12
2018-08-12T00:25:15.450Z,1016.12
2018-08-12T00:26:24.335Z,1016.09
2018-08-12T00:27:33.250Z,1016.11
2018-08-12T00:28:42.435Z,1016.1
2018-08-12T00:29:52.107Z,1016.06
2018-08-12T00:31:01.022Z,1016.06
2018-08-12T00:32:10.949Z,1016.04
2018-08-12T00:33:20.115Z,1015.99
2018-08-12T00:34:29.258Z,1016.02
2018-08-12T00:35:38.416Z,1016
2018-08-12T00:36:47.870Z,1016
2018-08-12T00:37:56.824Z,1016.02
2018-08-12T00:39:06.304Z,1016
2018-08-12T00:40:15.465Z,1015.98
2018-08-12T00:41:24.907Z,1015.96
2018-08-12T00:42:34.570Z,1015.94
2018-08-12T00:43:44.051Z,1015.94
2018-08-12T00:44:53.222Z,1015.92
2018-08-12T00:46:01.876Z,1015.91
2018-08-12T00:47:11.054Z,1015.96
2018-08-12T00:48:20.495Z,1015.96
2018-08-12T00:49:29.662Z,1015.98
2018-08-12T00:50:39.099Z,1016
2018-08-12T00:51:48.292Z,1015.94
2018-08-12T00:52:57.477Z,1015.95
2018-08-12T00:54:06.380Z,1015.93
2018-08-12T00:55:15.841Z,1015.9
2018-08-12T00:56:24.994Z,1015.9
2018-08-12T00:57:34.649Z,1015.91
2018-08-12T00:58:43.812Z,1015.88
2018-08-12T00:59:53.263Z,1015.87
2018-08-12T01:01:02.428Z,1015.88
2018-08-12T01:02:11.867Z,1015.86
2018-08-12T01:03:21.057Z,1015.84
2018-08-12T01:04:30.981Z,1015.82
2018-08-12T01:05:40.142Z,1015.81
2018-08-12T01:06:49.364Z,1015.82
2018-08-12T01:07:59.063Z,1015.82
2018-08-12T01:09:07.989Z,1015.84
2018-08-12T01:10:17.177Z,1015.82
2018-08-12T01:11:26.111Z,1015.85
2018-08-12T01:12:35.266Z,1015.82
2018-08-12T01:13:44.172Z,1015.8
2018-08-12T01:14:53.579Z,1015.8
2018-08-12T01:16:03.263Z,1015.79
2018-08-12T01:17:12.689Z,1015.79
2018-08-12T01:18:21.589Z,1015.76
2018-08-12T01:19:31.579Z,1015.74
2018-08-12T01:20:40.738Z,1015.68
2018-08-12T01:21:50.142Z,1015.66
2018-08-12T01:22:59.299Z,1015.66
2018-08-12T01:24:08.449Z,1015.64
2018-08-12T01:25:17.855Z,1015.66
2018-08-12T01:26:26.875Z,1015.65
2018-08-12T01:27:36.065Z,1015.64
2018-08-12T01:28:45.498Z,1015.64
2018-08-12T01:29:54.444Z,1015.65
2018-08-12T01:31:03.659Z,1015.64
2018-08-12T01:32:13.082Z,1015.67
2018-08-12T01:33:23.003Z,1015.66
2018-08-12T01:34:32.146Z,1015.69
2018-08-12T01:35:41.582Z,1015.7
2018-08-12T01:36:51.048Z,1015.68
2018-08-12T01:38:00.241Z,1015.66
2018-08-12T01:39:09.704Z,1015.65
2018-08-12T01:40:19.667Z,1015.59
2018-08-12T01:41:28.577Z,1015.57
2018-08-12T01:42:37.995Z,1015.51
2018-08-12T01:43:47.401Z,1015.52
2018-08-12T01:44:56.589Z,1015.5
2018-08-12T01:46:06.082Z,1015.51
2018-08-12T01:47:15.486Z,1015.51
2018-08-12T01:48:25.169Z,1015.48
2018-08-12T01:49:34.577Z,1015.49
2018-08-12T01:50:43.738Z,1015.47
2018-08-12T01:51:52.939Z,1015.5
2018-08-12T01:53:02.347Z,1015.49
2018-08-12T01:54:12.040Z,1015.5
2018-08-12T01:55:21.445Z,1015.48
2018-08-12T01:56:30.883Z,1015.47
2018-08-12T01:57:39.786Z,1015.48
2018-08-12T01:58:48.968Z,1015.5
2018-08-12T01:59:57.617Z,1015.48
2018-08-12T02:01:06.518Z,1015.45
2018-08-12T02:02:15.944Z,1015.47
2018-08-12T02:03:24.926Z,1015.45
2018-08-12T02:04:34.335Z,1015.46
2018-08-12T02:05:43.736Z,1015.45
2018-08-12T02:06:52.629Z,1015.49
2018-08-12T02:08:02.044Z,1015.52
2018-08-12T02:09:11.451Z,1015.5
2018-08-12T02:10:20.367Z,1015.46
2018-08-12T02:11:29.797Z,1015.45
2018-08-12T02:12:39.215Z,1015.46
2018-08-12T02:13:48.377Z,1015.42
2018-08-12T02:14:57.535Z,1015.44
2018-08-12T02:16:07.462Z,1015.4
2018-08-12T02:17:17.188Z,1015.38
2018-08-12T02:18:26.592Z,1015.37
2018-08-12T02:19:35.517Z,1015.38
2018-08-12T02:20:45.191Z,1015.4
2018-08-12T02:21:54.622Z,1015.35
2018-08-12T02:23:03.763Z,1015.34
2018-08-12T02:24:13.184Z,1015.32
2018-08-12T02:25:21.822Z,1015.29
2018-08-12T02:26:31.510Z,1015.32
2018-08-12T02:27:40.397Z,1015.26
2018-08-12T02:28:50.069Z,1015.26
2018-08-12T02:29:59.740Z,1015.25
2018-08-12T02:31:08.896Z,1015.27
2018-08-12T02:32:18.315Z,1015.27
2018-08-12T02:33:27.726Z,1015.22
2018-08-12T02:34:37.122Z,1015.23
2018-08-12T02:35:46.549Z,1015.23
2018-08-12T02:36:55.968Z,1015.21
2018-08-12T02:38:05.409Z,1015.18
2018-08-12T02:39:15.108Z,1015.12
2018-08-12T02:40:24.516Z,1015.14
2018-08-12T02:41:34.244Z,1015.06
2018-08-12T02:42:43.659Z,1015.06
2018-08-12T02:43:52.569Z,1015.08
2018-08-12T02:45:01.721Z,1015.02
2018-08-12T02:46:11.391Z,1015.07
2018-08-12T02:47:20.300Z,1015.03
2018-08-12T02:48:29.480Z,1015.02
2018-08-12T02:49:38.686Z,1015.03
2018-08-12T02:50:48.386Z,1015
2018-08-12T02:51:57.853Z,1015.01
2018-08-12T02:53:07.289Z,1015
2018-08-12T02:54:16.473Z,1014.99
2018-08-12T02:55:25.625Z,1014.94
2018-08-12T02:56:35.303Z,1014.92
2018-08-12T02:57:45.038Z,1014.91
2018-08-12T02:58:54.713Z,1014.86
2018-08-12T03:00:04.404Z,1014.86
2018-08-12T03:01:14.365Z,1014.85
2018-08-12T03:02:23.802Z,1014.8
2018-08-12T03:03:33.478Z,1014.79
2018-08-12T03:04:42.173Z,1014.77
2018-08-12T03:05:51.595Z,1014.77
2018-08-12T03:07:01.015Z,1014.72
2018-08-12T03:08:10.490Z,1014.7
2018-08-12T03:09:20.178Z,1014.71
2018-08-12T03:10:29.367Z,1014.68
2018-08-12T03:11:39.293Z,1014.62
2018-08-12T03:12:48.950Z,1014.6
2018-08-12T03:13:58.872Z,1014.57
2018-08-12T03:15:08.545Z,1014.52
2018-08-12T03:16:18.280Z,1014.55
2018-08-12T03:17:27.194Z,1014.55
2018-08-12T03:18:36.605Z,1014.58
2018-08-12T03:19:46.052Z,1014.58
2018-08-12T03:20:55.740Z,1014.58
2018-08-12T03:22:05.413Z,1014.57
2018-08-12T03:23:15.390Z,1014.59
2018-08-12T03:24:24.794Z,1014.61
2018-08-12T03:25:34.241Z,1014.6
2018-08-12T03:26:43.405Z,1014.58
2018-08-12T03:27:52.848Z,1014.6
2018-08-12T03:29:02.247Z,1014.57
2018-08-12T03:30:11.732Z,1014.59
2018-08-12T03:31:22.108Z,1014.57
2018-08-12T03:32:31.520Z,1014.53
2018-08-12T03:33:40.408Z,1014.52
2018-08-12T03:34:50.063Z,1014.49
2018-08-12T03:35:59.484Z,1014.5
2018-08-12T03:37:08.637Z,1014.46
2018-08-12T03:38:17.820Z,1014.5
2018-08-12T03:39:27.056Z,1014.47
2018-08-12T03:40:36.207Z,1014.45
2018-08-12T03:41:45.361Z,1014.43
2018-08-12T03:42:54.773Z,1014.44
2018-08-12T03:44:04.439Z,1014.39
2018-08-12T03:45:13.874Z,1014.4
2018-08-12T03:46:23.337Z,1014.37
2018-08-12T03:47:32.495Z,1014.35
2018-08-12T03:48:41.904Z,1014.38
2018-08-12T03:49:51.418Z,1014.37
2018-08-12T03:51:01.091Z,1014.36
2018-08-12T03:52:10.529Z,1014.35
2018-08-12T03:53:19.734Z,1014.33
2018-08-12T03:54:28.899Z,1014.32
2018-08-12T03:55:38.100Z,1014.3
2018-08-12T03:56:47.000Z,1014.3
2018-08-12T03:57:56.406Z,1014.3
2018-08-12T03:59:06.060Z,1014.26
2018-08-12T04:00:15.533Z,1014.25
2018-08-12T04:01:24.944Z,1014.22
2018-08-12T04:02:34.347Z,1014.24
2018-08-12T04:03:44.057Z,1014.25
2018-08-12T04:04:53.740Z,1014.27
2018-08-12T04:06:02.891Z,1014.29
2018-08-12T04:07:12.289Z,1014.29
2018-08-12T04:08:21.178Z,1014.33
2018-08-12T04:09:30.630Z,1014.29
2018-08-12T04:10:39.540Z,1014.32
2018-08-12T04:11:48.962Z,1014.3
2018-08-12T04:12:58.887Z,1014.26
2018-08-12T04:14:08.302Z,1014.29
2018-08-12T04:15:17.462Z,1014.25
2018-08-12T04:16:26.879Z,1014.24
2018-08-12T04:17:36.274Z,1014.22
2018-08-12T04:18:45.152Z,1014.23
2018-08-12T04:19:54.613Z,1014.22
2018-08-12T04:21:04.287Z,1014.19
2018-08-12T04:22:13.692Z,1014.15
2018-08-12T04:23:22.842Z,1014.16
2018-08-12T04:24:32.279Z,1014.17
2018-08-12T04:25:41.433Z,1014.15
2018-08-12T04:26:51.113Z,1014.16
2018-08-12T04:28:00.006Z,1014.2
2018-08-12T04:29:09.417Z,1014.2
2018-08-12T04:30:18.839Z,1014.18
2018-08-12T04:31:28.259Z,1014.2
2018-08-12T04:32:37.165Z,1014.19
2018-08-12T04:33:46.867Z,1014.15
2018-08-12T04:34:55.773Z,1014.2
2018-08-12T04:36:04.916Z,1014.2
2018-08-12T04:37:14.311Z,1014.19
2018-08-12T04:38:23.455Z,1014.18
2018-08-12T04:39:33.119Z,1014.15
2018-08-12T04:40:42.788Z,1014.14
2018-08-12T04:41:52.187Z,1014.16
2018-08-12T04:43:01.080Z,1014.11
2018-08-12T04:44:10.266Z,1014.15
2018-08-12T04:45:19.456Z,1014.17
2018-08-12T04:46:29.125Z,1014.19
2018-08-12T04:47:38.547Z,1014.16
2018-08-12T04:48:47.696Z,1014.19
2018-08-12T04:49:56.851Z,1014.16
2018-08-12T04:51:05.742Z,1014.18
2018-08-12T04:52:15.461Z,1014.17
2018-08-12T04:53:24.349Z,1014.15
2018-08-12T04:54:33.801Z,1014.18
2018-08-12T04:55:43.210Z,1014.15
2018-08-12T04:56:52.674Z,1014.13
2018-08-12T04:58:01.573Z,1014.11
2018-08-12T04:59:11.495Z,1014.16
2018-08-12T05:00:20.936Z,1014.15
2018-08-12T05:01:29.852Z,1014.13
2018-08-12T05:02:39.012Z,1014.11
2018-08-12T05:03:48.432Z,1014.15
2018-08-12T05:04:57.596Z,1014.17
2018-08-12T05:06:07.269Z,1014.13
2018-08-12T05:07:16.670Z,1014.11
2018-08-12T05:08:26.075Z,1014.11
2018-08-12T05:09:35.262Z,1014.08
2018-08-12T05:10:44.165Z,1014.09
2018-08-12T05:11:53.576Z,1014.11
2018-08-12T05:13:02.466Z,1014.09
2018-08-12T05:14:11.873Z,1014.08
2018-08-12T05:15:20.770Z,1014.1
2018-08-12T05:16:30.174Z,1014.1
2018-08-12T05:17:39.058Z,1014.08
2018-08-12T05:18:48.499Z,1014.05
2018-08-12T05:19:57.899Z,1014.07
2018-08-12T05:21:07.052Z,1014.03
2018-08-12T05:22:16.723Z,1014.07
2018-08-12T05:23:26.171Z,1014.05
2018-08-12T05:24:35.583Z,1014.06
2018-08-12T05:25:44.735Z,1013.98
2018-08-12T05:26:53.896Z,1013.99
2018-08-12T05:28:03.323Z,1013.99
2018-08-12T05:29:12.815Z,1014
2018-08-12T05:30:21.961Z,1013.97
2018-08-12T05:31:31.536Z,1013.98
2018-08-12T05:32:40.428Z,1013.92
2018-08-12T05:33:49.574Z,1013.93
2018-08-12T05:34:58.459Z,1013.9
2018-08-12T05:36:08.156Z,1013.89
2018-08-12T05:37:18.123Z,1013.87
2018-08-12T05:38:27.271Z,1013.89
2018-08-12T05:39:36.435Z,1013.9
2018-08-12T05:40:45.594Z,1013.93
2018-08-12T05:41:55.273Z,1014
2018-08-12T05:43:05.443Z,1014.01
2018-08-12T05:44:14.861Z,1013.99
2018-08-12T05:45:23.831Z,1013.96
2018-08-12T05:46:33.910Z,1013.98
2018-08-12T05:47:43.058Z,1013.95
2018-08-12T05:48:53.239Z,1013.95
2018-08-12T05:50:03.163Z,1013.91
2018-08-12T05:51:12.140Z,1013.88
2018-08-12T05:52:21.102Z,1013.9
2018-08-12T05:53:30.054Z,1013.88
2018-08-12T05:54:39.468Z,1013.87
2018-08-12T05:55:48.885Z,1013.84
2018-08-12T05:56:58.072Z,1013.84
2018-08-12T05:58:07.756Z,1013.84
2018-08-12T05:59:17.460Z,1013.81
2018-08-12T06:00:26.614Z,1013.83
2018-08-12T06:01:36.289Z,1013.79
2018-08-12T06:02:45.235Z,1013.77
2018-08-12T06:03:55.639Z,1013.76
2018-08-12T06:05:05.057Z,1013.76
2018-08-12T06:06:14.226Z,1013.71
2018-08-12T06:07:23.696Z,1013.73
2018-08-12T06:08:32.845Z,1013.74
2018-08-12T06:09:42.300Z,1013.78
2018-08-12T06:10:51.205Z,1013.74
2018-08-12T06:12:00.094Z,1013.75
2018-08-12T06:13:09.246Z,1013.76
2018-08-12T06:14:18.386Z,1013.73
2018-08-12T06:15:27.058Z,1013.74
2018-08-12T06:16:35.927Z,1013.75
2018-08-12T06:17:45.593Z,1013.7
2018-08-12T06:18:54.750Z,1013.73
2018-08-12T06:20:04.664Z,1013.77
2018-08-12T06:21:14.055Z,1013.74
2018-08-12T06:22:24.019Z,1013.75
2018-08-12T06:23:33.434Z,1013.71
2018-08-12T06:24:43.103Z,1013.67
2018-08-12T06:25:52.508Z,1013.66
2018-08-12T06:27:02.171Z,1013.67
2018-08-12T06:28:11.572Z,1013.7
2018-08-12T06:29:20.461Z,1013.66
2018-08-12T06:30:29.367Z,1013.67
2018-08-12T06:31:38.877Z,1013.7
2018-08-12T06:32:48.261Z,1013.7
2018-08-12T06:33:57.975Z,1013.7
2018-08-12T06:35:07.394Z,1013.66
2018-08-12T06:36:17.314Z,1013.62
2018-08-12T06:37:27.033Z,1013.62
2018-08-12T06:38:36.221Z,1013.65
2018-08-12T06:39:45.374Z,1013.59
2018-08-12T06:40:54.967Z,1013.6
2018-08-12T06:42:04.369Z,1013.56
2018-08-12T06:43:13.779Z,1013.56
2018-08-12T06:44:23.192Z,1013.55
2018-08-12T06:45:31.831Z,1013.57
2018-08-12T06:46:41.080Z,1013.57
2018-08-12T06:47:50.768Z,1013.55
2018-08-12T06:48:59.914Z,1013.58
2018-08-12T06:50:08.845Z,1013.56
2018-08-12T06:51:18.511Z,1013.55
2018-08-12T06:52:28.426Z,1013.56
2018-08-12T06:53:37.597Z,1013.55
2018-08-12T06:54:47.034Z,1013.54
2018-08-12T06:55:56.265Z,1013.54
2018-08-12T06:57:05.420Z,1013.51
2018-08-12T06:58:14.569Z,1013.5
2018-08-12T06:59:23.999Z,1013.53
2018-08-12T07:00:33.948Z,1013.52
2018-08-12T07:01:43.542Z,1013.51
2018-08-12T07:02:52.447Z,1013.49
2018-08-12T07:04:02.115Z,1013.48
2018-08-12T07:05:11.520Z,1013.47
2018-08-12T07:06:21.195Z,1013.46
2018-08-12T07:07:30.372Z,1013.45
2018-08-12T07:08:39.521Z,1013.44
2018-08-12T07:09:48.744Z,1013.4
2018-08-12T07:10:58.172Z,1013.44
2018-08-12T07:12:07.836Z,1013.43
2018-08-12T07:13:17.001Z,1013.47
2018-08-12T07:14:26.001Z,1013.44
2018-08-12T07:15:35.622Z,1013.44
2018-08-12T07:16:44.827Z,1013.43
2018-08-12T07:17:54.484Z,1013.38
2018-08-12T07:19:03.653Z,1013.43
2018-08-12T07:20:12.547Z,1013.4
2018-08-12T07:21:21.685Z,1013.35
2018-08-12T07:22:31.111Z,1013.39
2018-08-12T07:23:40.263Z,1013.37
2018-08-12T07:24:49.479Z,1013.32
2018-08-12T07:25:59.216Z,1013.33
2018-08-12T07:27:08.380Z,1013.37
2018-08-12T07:28:17.556Z,1013.33
2018-08-12T07:29:26.708Z,1013.32
2018-08-12T07:30:35.894Z,1013.31
2018-08-12T07:31:45.048Z,1013.3
2018-08-12T07:32:54.014Z,1013.27
2018-08-12T07:34:04.097Z,1013.26
2018-08-12T07:35:13.260Z,1013.25
2018-08-12T07:36:23.169Z,1013.22
2018-08-12T07:37:32.827Z,1013.24
2018-08-12T07:38:42.030Z,1013.23
2018-08-12T07:39:51.890Z,1013.2
2018-08-12T07:41:01.964Z,1013.24
2018-08-12T07:42:11.387Z,1013.2
2018-08-12T07:43:21.069Z,1013.17
2018-08-12T07:44:30.752Z,1013.18
2018-08-12T07:45:39.900Z,1013.19
2018-08-12T07:46:49.317Z,1013.16
2018-08-12T07:47:58.461Z,1013.13
2018-08-12T07:49:08.131Z,1013.11
2018-08-12T07:50:17.287Z,1013.14
2018-08-12T07:51:26.693Z,1013.1
2018-08-12T07:52:35.896Z,1013.14
2018-08-12T07:53:45.382Z,1013.11
2018-08-12T07:54:54.788Z,1013.11
2018-08-12T07:56:03.673Z,1013.05
2018-08-12T07:57:13.140Z,1013.04
2018-08-12T07:58:22.294Z,1013.05
2018-08-12T07:59:32.039Z,1013.03
2018-08-12T08:00:41.442Z,1013.03
2018-08-12T08:01:50.601Z,1013
2018-08-12T08:02:59.770Z,1013
2018-08-12T08:04:08.683Z,1012.95
2018-08-12T08:05:18.091Z,1012.96
2018-08-12T08:06:27.531Z,1013
2018-08-12T08:07:36.947Z,1012.95
2018-08-12T08:08:46.611Z,1012.93
2018-08-12T08:09:56.843Z,1012.95
2018-08-12T08:11:06.262Z,1012.95
2018-08-12T08:12:15.942Z,1012.97
2018-08-12T08:13:25.442Z,1012.96
2018-08-12T08:14:34.347Z,1012.94
2018-08-12T08:15:43.761Z,1012.99
2018-08-12T08:16:52.905Z,1013
2018-08-12T08:18:02.088Z,1013.02
2018-08-12T08:19:11.761Z,1013
